sensor_id;sensor_type;location;lat;lon;timestamp;pressure;altitude;pressure_sealevel;temperature;humidity
83037;BME280;73029;43.592;1.458;2024-02-04T00:02:01;101556.13;;;9.20;70.74
83037;BME280;73029;43.592;1.458;2024-02-04T00:04:29;101552.56;;;9.19;71.47
83037;BME280;73029;43.592;1.458;2024-02-04T00:06:54;101553.44;;;9.18;70.37
83037;BME280;73029;43.592;1.458;2024-02-04T00:09:20;101533.03;;;9.00;70.19
83037;BME280;73029;43.592;1.458;2024-02-04T00:11:45;101541.00;;;9.05;71.41
83037;BME280;73029;43.592;1.458;2024-02-04T00:14:11;101538.34;;;9.03;71.52
83037;BME280;73029;43.592;1.458;2024-02-04T00:16:37;101536.66;;;9.10;70.63
83037;BME280;73029;43.592;1.458;2024-02-04T00:19:02;101539.34;;;9.13;70.49
83037;BME280;73029;43.592;1.458;2024-02-04T00:21:27;101529.59;;;9.07;71.00
83037;BME280;73029;43.592;1.458;2024-02-04T00:23:53;101539.28;;;9.10;70.74
83037;BME280;73029;43.592;1.458;2024-02-04T00:26:18;101552.50;;;9.11;70.59
83037;BME280;73029;43.592;1.458;2024-02-04T00:28:44;101525.97;;;8.98;70.58
83037;BME280;73029;43.592;1.458;2024-02-04T00:31:09;101534.88;;;9.07;71.29
83037;BME280;73029;43.592;1.458;2024-02-04T00:33:34;101551.63;;;9.12;71.01
83037;BME280;73029;43.592;1.458;2024-02-04T00:36:00;101545.44;;;9.07;70.74
83037;BME280;73029;43.592;1.458;2024-02-04T00:38:25;101544.63;;;9.13;71.41
83037;BME280;73029;43.592;1.458;2024-02-04T00:40:51;101530.50;;;9.09;71.58
83037;BME280;73029;43.592;1.458;2024-02-04T00:43:18;101519.06;;;9.10;70.82
83037;BME280;73029;43.592;1.458;2024-02-04T00:45:43;101534.09;;;9.16;71.10
83037;BME280;73029;43.592;1.458;2024-02-04T00:48:08;101524.28;;;9.06;70.94
83037;BME280;73029;43.592;1.458;2024-02-04T00:50:34;101545.56;;;9.20;70.71
83037;BME280;73029;43.592;1.458;2024-02-04T00:52:59;101553.50;;;9.21;71.40
83037;BME280;73029;43.592;1.458;2024-02-04T00:55:25;101549.09;;;9.22;71.29
83037;BME280;73029;43.592;1.458;2024-02-04T00:57:50;101554.38;;;9.22;70.90
83037;BME280;73029;43.592;1.458;2024-02-04T01:00:16;101558.78;;;9.23;70.71
83037;BME280;73029;43.592;1.458;2024-02-04T01:02:41;101549.09;;;9.23;70.39
83037;BME280;73029;43.592;1.458;2024-02-04T01:05:07;101552.63;;;9.24;70.71
83037;BME280;73029;43.592;1.458;2024-02-04T01:07:33;101551.75;;;9.22;70.42
83037;BME280;73029;43.592;1.458;2024-02-04T01:09:58;101539.38;;;9.19;70.69
83037;BME280;73029;43.592;1.458;2024-02-04T01:12:23;101543.81;;;9.22;70.02
83037;BME280;73029;43.592;1.458;2024-02-04T01:14:49;101549.09;;;9.20;69.79
83037;BME280;73029;43.592;1.458;2024-02-04T01:17:17;101546.41;;;9.17;70.25
83037;BME280;73029;43.592;1.458;2024-02-04T01:19:43;101547.28;;;9.17;70.21
83037;BME280;73029;43.592;1.458;2024-02-04T01:22:08;101533.19;;;9.15;69.77
83037;BME280;73029;43.592;1.458;2024-02-04T01:24:33;101540.25;;;9.18;69.73
83037;BME280;73029;43.592;1.458;2024-02-04T01:26:59;101535.84;;;9.15;69.95
83037;BME280;73029;43.592;1.458;2024-02-04T01:29:24;101540.25;;;9.18;69.75
83037;BME280;73029;43.592;1.458;2024-02-04T01:31:50;101529.69;;;9.13;70.02
83037;BME280;73029;43.592;1.458;2024-02-04T01:34:16;101538.47;;;9.15;70.10
83037;BME280;73029;43.592;1.458;2024-02-04T01:36:41;101529.63;;;9.10;70.01
83037;BME280;73029;43.592;1.458;2024-02-04T01:39:07;101538.50;;;9.18;70.17
83037;BME280;73029;43.592;1.458;2024-02-04T01:41:32;101527.91;;;9.14;69.44
83037;BME280;73029;43.592;1.458;2024-02-04T01:43:58;101530.56;;;9.17;69.26
83037;BME280;73029;43.592;1.458;2024-02-04T01:46:24;101543.78;;;9.18;69.36
83037;BME280;73029;43.592;1.458;2024-02-04T01:48:49;101532.31;;;9.13;69.20
83037;BME280;73029;43.592;1.458;2024-02-04T01:51:17;101539.41;;;9.21;69.06
83037;BME280;73029;43.592;1.458;2024-02-04T01:53:44;101535.91;;;9.20;69.17
83037;BME280;73029;43.592;1.458;2024-02-04T01:56:12;101545.56;;;9.20;69.21
83037;BME280;73029;43.592;1.458;2024-02-04T01:58:38;101542.88;;;9.18;69.67
83037;BME280;73029;43.592;1.458;2024-02-04T02:01:03;101525.16;;;9.02;69.28
83037;BME280;73029;43.592;1.458;2024-02-04T02:03:31;101547.19;;;9.08;69.50
83037;BME280;73029;43.592;1.458;2024-02-04T02:05:57;101546.28;;;9.06;69.13
83037;BME280;73029;43.592;1.458;2024-02-04T02:08:23;101530.38;;;8.99;69.16
83037;BME280;73029;43.592;1.458;2024-02-04T02:10:51;101545.44;;;9.10;69.51
83037;BME280;73029;43.592;1.458;2024-02-04T02:13:27;101550.72;;;9.07;69.46
83037;BME280;73029;43.592;1.458;2024-02-04T02:16:03;101529.50;;;8.98;69.76
83037;BME280;73029;43.592;1.458;2024-02-04T02:18:39;101538.34;;;9.05;68.81
83037;BME280;73029;43.592;1.458;2024-02-04T02:26:23;101541.81;;;8.99;69.59
83037;BME280;73029;43.592;1.458;2024-02-04T02:28:49;101541.81;;;8.99;69.56
83037;BME280;73029;43.592;1.458;2024-02-04T02:31:14;101546.19;;;8.99;69.01
83037;BME280;73029;43.592;1.458;2024-02-04T02:33:40;101548.81;;;8.97;69.08
83037;BME280;73029;43.592;1.458;2024-02-04T02:36:11;101540.91;;;8.96;68.73
83037;BME280;73029;43.592;1.458;2024-02-04T02:38:48;101529.41;;;8.89;69.41
83037;BME280;73029;43.592;1.458;2024-02-04T02:41:17;101528.53;;;8.93;69.28
83037;BME280;73029;43.592;1.458;2024-02-04T02:43:44;101522.38;;;8.89;69.17
83037;BME280;73029;43.592;1.458;2024-02-04T02:46:12;101524.97;;;8.88;68.71
83037;BME280;73029;43.592;1.458;2024-02-04T02:48:37;101527.56;;;8.83;69.28
83037;BME280;73029;43.592;1.458;2024-02-04T02:51:04;101509.00;;;8.74;68.94
83037;BME280;73029;43.592;1.458;2024-02-04T02:53:30;101509.88;;;8.75;68.74
83037;BME280;73029;43.592;1.458;2024-02-04T02:55:57;101528.38;;;8.79;69.47
83037;BME280;73029;43.592;1.458;2024-02-04T02:58:23;101530.13;;;8.76;69.49
83037;BME280;73029;43.592;1.458;2024-02-04T03:00:48;101528.38;;;8.78;69.24
83037;BME280;73029;43.592;1.458;2024-02-04T03:03:14;101519.53;;;8.74;69.45
83037;BME280;73029;43.592;1.458;2024-02-04T03:05:39;101523.06;;;8.75;69.06
83037;BME280;73029;43.592;1.458;2024-02-04T03:08:05;101531.03;;;8.78;69.08
83037;BME280;73029;43.592;1.458;2024-02-04T03:10:30;101532.78;;;8.79;69.38
83037;BME280;73029;43.592;1.458;2024-02-04T03:12:56;101526.63;;;8.77;69.10
83037;BME280;73029;43.592;1.458;2024-02-04T03:15:21;101537.19;;;8.80;68.97
83037;BME280;73029;43.592;1.458;2024-02-04T03:17:46;101533.66;;;8.79;68.73
83037;BME280;73029;43.592;1.458;2024-02-04T03:20:12;101532.78;;;8.79;69.15
83037;BME280;73029;43.592;1.458;2024-02-04T03:22:37;101516.91;;;8.74;68.79
83037;BME280;73029;43.592;1.458;2024-02-04T03:25:03;101525.75;;;8.79;68.47
83037;BME280;73029;43.592;1.458;2024-02-04T03:27:28;101511.69;;;8.79;69.53
83037;BME280;73029;43.592;1.458;2024-02-04T03:29:53;101511.69;;;8.79;69.13
83037;BME280;73029;43.592;1.458;2024-02-04T03:32:19;101506.41;;;8.77;68.49
83037;BME280;73029;43.592;1.458;2024-02-04T03:34:44;101509.03;;;8.76;68.32
83037;BME280;73029;43.592;1.458;2024-02-04T03:37:10;101516.94;;;8.76;68.87
83037;BME280;73029;43.592;1.458;2024-02-04T03:39:35;101516.03;;;8.74;69.12
83037;BME280;73029;43.592;1.458;2024-02-04T03:42:00;101509.81;;;8.69;68.95
83037;BME280;73029;43.592;1.458;2024-02-04T03:44:26;101522.09;;;8.68;69.29
83037;BME280;73029;43.592;1.458;2024-02-04T03:46:51;101514.16;;;8.63;69.03
83037;BME280;73029;43.592;1.458;2024-02-04T03:49:17;101512.41;;;8.64;69.06
83037;BME280;73029;43.592;1.458;2024-02-04T03:51:43;101514.97;;;8.59;69.46
83037;BME280;73029;43.592;1.458;2024-02-04T03:54:08;101513.22;;;8.60;69.36
83037;BME280;73029;43.592;1.458;2024-02-04T03:56:33;101520.25;;;8.61;69.58
83037;BME280;73029;43.592;1.458;2024-02-04T03:58:59;101518.56;;;8.65;69.67
83037;BME280;73029;43.592;1.458;2024-02-04T04:01:24;101507.06;;;8.61;68.85
83037;BME280;73029;43.592;1.458;2024-02-04T04:03:50;101505.31;;;8.61;69.68
83037;BME280;73029;43.592;1.458;2024-02-04T04:06:15;101518.56;;;8.65;69.96
83037;BME280;73029;43.592;1.458;2024-02-04T04:08:40;101508.00;;;8.65;70.27
83037;BME280;73029;43.592;1.458;2024-02-04T04:11:08;101488.63;;;8.59;69.35
83037;BME280;73029;43.592;1.458;2024-02-04T04:13:34;101504.50;;;8.66;69.14
83037;BME280;73029;43.592;1.458;2024-02-04T04:16:00;101494.84;;;8.66;69.58
83037;BME280;73029;43.592;1.458;2024-02-04T04:18:26;101486.88;;;8.61;69.35
83037;BME280;73029;43.592;1.458;2024-02-04T04:20:51;101492.22;;;8.66;70.21
83037;BME280;73029;43.592;1.458;2024-02-04T04:23:17;101490.47;;;8.68;69.40
83037;BME280;73029;43.592;1.458;2024-02-04T04:25:42;101493.97;;;8.66;68.96
83037;BME280;73029;43.592;1.458;2024-02-04T04:28:08;101486.94;;;8.65;68.75
83037;BME280;73029;43.592;1.458;2024-02-04T04:30:33;101483.38;;;8.62;69.66
83037;BME280;73029;43.592;1.458;2024-02-04T04:32:58;101486.00;;;8.62;69.66
83037;BME280;73029;43.592;1.458;2024-02-04T04:35:24;101491.28;;;8.62;70.15
83037;BME280;73029;43.592;1.458;2024-02-04T04:37:50;101453.31;;;8.45;69.79
83037;BME280;73029;43.592;1.458;2024-02-04T04:40:15;101475.44;;;8.61;69.01
83037;BME280;73029;43.592;1.458;2024-02-04T04:42:41;101472.72;;;8.53;70.06
83037;BME280;73029;43.592;1.458;2024-02-04T04:45:07;101485.97;;;8.58;69.23
83037;BME280;73029;43.592;1.458;2024-02-04T04:47:36;101485.09;;;8.57;69.51
83037;BME280;73029;43.592;1.458;2024-02-04T04:50:02;101487.69;;;8.56;69.82
83037;BME280;73029;43.592;1.458;2024-02-04T04:52:28;101482.31;;;8.47;69.27
83037;BME280;73029;43.592;1.458;2024-02-04T04:54:54;101461.16;;;8.42;69.26
83037;BME280;73029;43.592;1.458;2024-02-04T04:57:20;101476.16;;;8.45;69.01
83037;BME280;73029;43.592;1.458;2024-02-04T04:59:45;101487.50;;;8.42;69.01
83037;BME280;73029;43.592;1.458;2024-02-04T05:02:10;101489.25;;;8.40;69.43
83037;BME280;73029;43.592;1.458;2024-02-04T05:04:36;101493.66;;;8.41;68.90
83037;BME280;73029;43.592;1.458;2024-02-04T05:07:01;101478.53;;;8.28;69.65
83037;BME280;73029;43.592;1.458;2024-02-04T05:09:27;101490.84;;;8.32;69.39
83037;BME280;73029;43.592;1.458;2024-02-04T05:11:52;101495.28;;;8.34;69.99
83037;BME280;73029;43.592;1.458;2024-02-04T05:14:17;101497.16;;;8.39;69.92
83037;BME280;73029;43.592;1.458;2024-02-04T05:16:43;101493.59;;;8.36;70.03
83037;BME280;73029;43.592;1.458;2024-02-04T05:19:09;101498.00;;;8.38;69.93
83037;BME280;73029;43.592;1.458;2024-02-04T05:21:38;101507.69;;;8.40;69.88
83037;BME280;73029;43.592;1.458;2024-02-04T05:24:04;101498.88;;;8.38;69.62
83037;BME280;73029;43.592;1.458;2024-02-04T05:26:30;101498.81;;;8.35;69.78
83037;BME280;73029;43.592;1.458;2024-02-04T05:28:55;101495.34;;;8.38;69.67
83037;BME280;73029;43.592;1.458;2024-02-04T05:31:20;101494.47;;;8.35;70.11
83037;BME280;73029;43.592;1.458;2024-02-04T05:33:46;101495.22;;;8.30;69.28
83037;BME280;73029;43.592;1.458;2024-02-04T05:36:11;101487.25;;;8.25;69.78
83037;BME280;73029;43.592;1.458;2024-02-04T05:38:36;101494.28;;;8.25;69.30
83037;BME280;73029;43.592;1.458;2024-02-04T05:41:02;101490.75;;;8.23;69.76
83037;BME280;73029;43.592;1.458;2024-02-04T05:43:27;101484.53;;;8.19;70.39
83037;BME280;73029;43.592;1.458;2024-02-04T05:45:53;101494.22;;;8.20;70.45
83037;BME280;73029;43.592;1.458;2024-02-04T05:48:18;101482.66;;;8.09;71.01
83037;BME280;73029;43.592;1.458;2024-02-04T05:50:44;101487.13;;;8.16;69.81
83037;BME280;73029;43.592;1.458;2024-02-04T05:53:09;101501.22;;;8.20;70.37
83037;BME280;73029;43.592;1.458;2024-02-04T05:55:34;101510.03;;;8.20;69.31
83037;BME280;73029;43.592;1.458;2024-02-04T05:58:00;101521.50;;;8.25;70.58
83037;BME280;73029;43.592;1.458;2024-02-04T06:00:26;101521.47;;;8.21;70.68
83037;BME280;73029;43.592;1.458;2024-02-04T06:02:51;101537.28;;;8.24;69.85
83037;BME280;73029;43.592;1.458;2024-02-04T06:05:17;101525.78;;;8.16;70.56
83037;BME280;73029;43.592;1.458;2024-02-04T06:07:42;101531.06;;;8.17;70.15
83037;BME280;73029;43.592;1.458;2024-02-04T06:10:09;101500.22;;;8.08;70.22
83037;BME280;73029;43.592;1.458;2024-02-04T06:12:34;101533.78;;;8.25;70.19
83037;BME280;73029;43.592;1.458;2024-02-04T06:15:00;101535.50;;;8.21;70.01
83037;BME280;73029;43.592;1.458;2024-02-04T06:17:25;101547.00;;;8.26;70.48
83037;BME280;73029;43.592;1.458;2024-02-04T06:19:51;101544.38;;;8.26;69.90
83037;BME280;73029;43.592;1.458;2024-02-04T06:22:16;101557.72;;;8.37;71.12
83037;BME280;73029;43.592;1.458;2024-02-04T06:24:42;101552.38;;;8.34;70.88
83037;BME280;73029;43.592;1.458;2024-02-04T06:27:08;101552.50;;;8.40;70.41
83037;BME280;73029;43.592;1.458;2024-02-04T06:29:33;101542.75;;;8.36;70.71
83037;BME280;73029;43.592;1.458;2024-02-04T06:31:59;101548.06;;;8.38;70.94
83037;BME280;73029;43.592;1.458;2024-02-04T06:34:24;101543.66;;;8.36;70.25
83037;BME280;73029;43.592;1.458;2024-02-04T06:36:50;101543.66;;;8.36;70.65
83037;BME280;73029;43.592;1.458;2024-02-04T06:39:16;101540.97;;;8.35;70.06
83037;BME280;73029;43.592;1.458;2024-02-04T06:41:41;101538.31;;;8.33;70.32
83037;BME280;73029;43.592;1.458;2024-02-04T06:44:07;101554.28;;;8.44;70.26
83037;BME280;73029;43.592;1.458;2024-02-04T06:46:32;101549.06;;;8.46;70.77
83037;BME280;73029;43.592;1.458;2024-02-04T06:48:57;101546.38;;;8.44;70.21
83037;BME280;73029;43.592;1.458;2024-02-04T06:51:23;101556.97;;;8.47;70.39
83037;BME280;73029;43.592;1.458;2024-02-04T06:53:48;101553.47;;;8.48;70.94
83037;BME280;73029;43.592;1.458;2024-02-04T06:56:14;101559.69;;;8.53;70.47
83037;BME280;73029;43.592;1.458;2024-02-04T06:58:40;101553.56;;;8.54;70.52
83037;BME280;73029;43.592;1.458;2024-02-04T07:01:06;101529.59;;;8.38;70.89
83037;BME280;73029;43.592;1.458;2024-02-04T07:03:31;101558.03;;;8.58;71.15
83037;BME280;73029;43.592;1.458;2024-02-04T07:06:01;101558.91;;;8.60;70.40
83037;BME280;73029;43.592;1.458;2024-02-04T07:08:26;101557.16;;;8.59;70.89
83037;BME280;73029;43.592;1.458;2024-02-04T07:10:52;101557.16;;;8.59;70.63
83037;BME280;73029;43.592;1.458;2024-02-04T07:13:18;101558.06;;;8.63;70.21
83037;BME280;73029;43.592;1.458;2024-02-04T07:15:43;101555.41;;;8.61;70.08
83037;BME280;73029;43.592;1.458;2024-02-04T07:18:09;101570.41;;;8.64;70.46
83037;BME280;73029;43.592;1.458;2024-02-04T07:20:35;101568.59;;;8.61;69.88
83037;BME280;73029;43.592;1.458;2024-02-04T07:23:00;101562.38;;;8.56;70.14
83037;BME280;73029;43.592;1.458;2024-02-04T07:25:25;101534.97;;;8.44;69.77
83037;BME280;73029;43.592;1.458;2024-02-04T07:27:51;101566.81;;;8.60;70.40
83037;BME280;73029;43.592;1.458;2024-02-04T07:30:17;101564.16;;;8.59;70.48
83037;BME280;73029;43.592;1.458;2024-02-04T07:32:42;101568.56;;;8.60;69.93
83037;BME280;73029;43.592;1.458;2024-02-04T07:35:08;101581.75;;;8.58;69.97
83037;BME280;73029;43.592;1.458;2024-02-04T07:37:34;101564.03;;;8.48;69.76
83037;BME280;73029;43.592;1.458;2024-02-04T07:40:00;101581.66;;;8.52;70.56
83037;BME280;73029;43.592;1.458;2024-02-04T07:42:26;101577.19;;;8.48;70.61
83037;BME280;73029;43.592;1.458;2024-02-04T07:44:52;101583.34;;;8.47;71.02
83037;BME280;73029;43.592;1.458;2024-02-04T07:47:18;101588.63;;;8.50;70.14
83037;BME280;73029;43.592;1.458;2024-02-04T07:49:47;101581.59;;;8.49;70.83
83037;BME280;73029;43.592;1.458;2024-02-04T07:52:12;101589.56;;;8.52;70.58
83037;BME280;73029;43.592;1.458;2024-02-04T07:54:37;101586.88;;;8.49;70.88
83037;BME280;73029;43.592;1.458;2024-02-04T07:57:03;101586.00;;;8.50;71.07
83037;BME280;73029;43.592;1.458;2024-02-04T07:59:29;101585.16;;;8.51;70.54
83037;BME280;73029;43.592;1.458;2024-02-04T08:01:54;101578.91;;;8.45;70.63
83037;BME280;73029;43.592;1.458;2024-02-04T08:04:19;101593.97;;;8.53;71.00
83037;BME280;73029;43.592;1.458;2024-02-04T08:06:45;101574.38;;;8.36;71.13
83037;BME280;73029;43.592;1.458;2024-02-04T08:09:10;101597.41;;;8.49;71.14
83037;BME280;73029;43.592;1.458;2024-02-04T08:11:37;101602.66;;;8.48;71.01
83037;BME280;73029;43.592;1.458;2024-02-04T08:14:02;101602.66;;;8.46;70.86
83037;BME280;73029;43.592;1.458;2024-02-04T08:16:27;101607.06;;;8.49;70.90
83037;BME280;73029;43.592;1.458;2024-02-04T08:18:53;101596.44;;;8.43;71.01
83037;BME280;73029;43.592;1.458;2024-02-04T08:21:18;101597.41;;;8.49;70.91
83037;BME280;73029;43.592;1.458;2024-02-04T08:23:44;101607.94;;;8.48;71.32
83037;BME280;73029;43.592;1.458;2024-02-04T08:26:10;101595.63;;;8.48;70.88
83037;BME280;73029;43.592;1.458;2024-02-04T08:28:35;101611.53;;;8.54;71.11
83037;BME280;73029;43.592;1.458;2024-02-04T08:31:01;101616.88;;;8.57;71.79
83037;BME280;73029;43.592;1.458;2024-02-04T08:33:26;101618.63;;;8.58;71.00
83037;BME280;73029;43.592;1.458;2024-02-04T08:35:51;101609.81;;;8.56;71.53
83037;BME280;73029;43.592;1.458;2024-02-04T08:38:17;101610.72;;;8.58;71.76
83037;BME280;73029;43.592;1.458;2024-02-04T08:40:42;101617.75;;;8.58;71.05
83037;BME280;73029;43.592;1.458;2024-02-04T08:43:08;101622.16;;;8.59;71.30
83037;BME280;73029;43.592;1.458;2024-02-04T08:45:33;101613.31;;;8.57;70.83
83037;BME280;73029;43.592;1.458;2024-02-04T08:47:59;101613.41;;;8.61;71.00
83037;BME280;73029;43.592;1.458;2024-02-04T08:50:24;101622.19;;;8.62;71.12
83037;BME280;73029;43.592;1.458;2024-02-04T08:52:49;101621.31;;;8.63;71.43
83037;BME280;73029;43.592;1.458;2024-02-04T08:55:15;101628.38;;;8.64;71.36
83037;BME280;73029;43.592;1.458;2024-02-04T08:57:40;101623.16;;;8.67;71.05
83037;BME280;73029;43.592;1.458;2024-02-04T09:00:06;101615.22;;;8.66;70.55
83037;BME280;73029;43.592;1.458;2024-02-04T09:02:34;101620.50;;;8.66;71.30
83037;BME280;73029;43.592;1.458;2024-02-04T09:05:00;101628.50;;;8.72;70.75
83037;BME280;73029;43.592;1.458;2024-02-04T09:07:26;101616.09;;;8.66;71.07
83037;BME280;73029;43.592;1.458;2024-02-04T09:09:51;101623.19;;;8.70;70.86
83037;BME280;73029;43.592;1.458;2024-02-04T09:12:17;101631.13;;;8.72;70.67
83037;BME280;73029;43.592;1.458;2024-02-04T09:14:43;101640.78;;;8.71;70.84
83037;BME280;73029;43.592;1.458;2024-02-04T09:17:08;101624.91;;;8.67;71.21
83037;BME280;73029;43.592;1.458;2024-02-04T09:19:35;101619.63;;;8.68;70.85
83037;BME280;73029;43.592;1.458;2024-02-04T09:22:00;101630.19;;;8.68;70.63
83037;BME280;73029;43.592;1.458;2024-02-04T09:24:27;101616.09;;;8.66;70.68
83037;BME280;73029;43.592;1.458;2024-02-04T09:26:52;101614.34;;;8.67;71.27
83037;BME280;73029;43.592;1.458;2024-02-04T09:29:20;101624.97;;;8.73;71.12
83037;BME280;73029;43.592;1.458;2024-02-04T09:31:46;101598.38;;;8.56;70.94
83037;BME280;73029;43.592;1.458;2024-02-04T09:34:11;101620.59;;;8.72;70.92
83037;BME280;73029;43.592;1.458;2024-02-04T09:36:37;101616.13;;;8.69;71.25
83037;BME280;73029;43.592;1.458;2024-02-04T09:39:02;101617.88;;;8.67;71.18
83037;BME280;73029;43.592;1.458;2024-02-04T09:41:28;101610.81;;;8.65;71.08
83037;BME280;73029;43.592;1.458;2024-02-04T09:43:55;101616.13;;;8.68;70.68
83037;BME280;73029;43.592;1.458;2024-02-04T09:46:20;101609.06;;;8.67;70.94
83037;BME280;73029;43.592;1.458;2024-02-04T09:48:47;101616.97;;;8.65;70.83
83037;BME280;73029;43.592;1.458;2024-02-04T09:51:14;101617.06;;;8.71;71.41
83037;BME280;73029;43.592;1.458;2024-02-04T09:53:44;101624.16;;;8.77;71.08
83037;BME280;73029;43.592;1.458;2024-02-04T09:56:11;101614.53;;;8.79;71.60
83037;BME280;73029;43.592;1.458;2024-02-04T09:58:37;101621.56;;;8.80;71.55
83037;BME280;73029;43.592;1.458;2024-02-04T10:01:04;101621.63;;;8.83;71.03
83037;BME280;73029;43.592;1.458;2024-02-04T10:03:30;101618.03;;;8.78;71.49
83037;BME280;73029;43.592;1.458;2024-02-04T10:05:56;101631.28;;;8.84;70.83
83037;BME280;73029;43.592;1.458;2024-02-04T10:08:21;101630.41;;;8.85;71.10
83037;BME280;73029;43.592;1.458;2024-02-04T10:10:47;101626.03;;;8.84;70.44
83037;BME280;73029;43.592;1.458;2024-02-04T10:13:13;101623.41;;;8.87;70.80
83037;BME280;73029;43.592;1.458;2024-02-04T10:15:38;101619.88;;;8.83;70.95
83037;BME280;73029;43.592;1.458;2024-02-04T10:18:07;101626.03;;;8.85;70.73
83037;BME280;73029;43.592;1.458;2024-02-04T10:20:33;101632.25;;;8.89;70.95
83037;BME280;73029;43.592;1.458;2024-02-04T10:22:58;101611.94;;;8.83;70.69
83037;BME280;73029;43.592;1.458;2024-02-04T10:25:24;101619.09;;;8.92;70.29
83037;BME280;73029;43.592;1.458;2024-02-04T10:27:50;101627.88;;;8.93;71.00
83037;BME280;73029;43.592;1.458;2024-02-04T10:30:19;101634.03;;;8.92;71.07
83037;BME280;73029;43.592;1.458;2024-02-04T10:32:52;101634.91;;;8.92;70.61
83037;BME280;73029;43.592;1.458;2024-02-04T10:35:20;101628.81;;;8.95;71.15
83037;BME280;73029;43.592;1.458;2024-02-04T10:37:47;101620.84;;;8.93;71.15
83037;BME280;73029;43.592;1.458;2024-02-04T10:40:13;101606.78;;;8.94;71.23
83037;BME280;73029;43.592;1.458;2024-02-04T10:42:42;101592.63;;;8.86;71.28
83037;BME280;73029;43.592;1.458;2024-02-04T10:45:09;101596.16;;;8.88;70.88
83037;BME280;73029;43.592;1.458;2024-02-04T10:47:37;101604.13;;;8.89;70.57
83037;BME280;73029;43.592;1.458;2024-02-04T10:50:03;101596.16;;;8.88;70.37
83037;BME280;73029;43.592;1.458;2024-02-04T10:52:36;101605.88;;;8.89;70.82
83037;BME280;73029;43.592;1.458;2024-02-04T10:55:07;101592.56;;;8.80;71.15
83037;BME280;73029;43.592;1.458;2024-02-04T10:57:34;101598.78;;;8.83;71.08
83037;BME280;73029;43.592;1.458;2024-02-04T11:00:00;101603.19;;;8.86;70.63
83037;BME280;73029;43.592;1.458;2024-02-04T11:02:27;101609.31;;;8.85;70.81
83037;BME280;73029;43.592;1.458;2024-02-04T11:04:53;101607.56;;;8.84;71.03
83037;BME280;73029;43.592;1.458;2024-02-04T11:07:20;101619.06;;;8.89;70.88
83037;BME280;73029;43.592;1.458;2024-02-04T11:09:46;101614.63;;;8.88;70.81
83037;BME280;73029;43.592;1.458;2024-02-04T11:12:16;101623.53;;;8.95;71.29
83037;BME280;73029;43.592;1.458;2024-02-04T11:14:48;101588.22;;;8.83;70.66
83037;BME280;73029;43.592;1.458;2024-02-04T11:25:53;101610.50;;;9.08;70.82
83037;BME280;73029;43.592;1.458;2024-02-04T11:28:21;101596.38;;;9.03;70.42
83037;BME280;73029;43.592;1.458;2024-02-04T11:30:47;101595.56;;;9.09;70.65
83037;BME280;73029;43.592;1.458;2024-02-04T11:33:18;101595.69;;;9.20;70.49
83037;BME280;73029;43.592;1.458;2024-02-04T11:35:44;101585.16;;;9.21;70.45
83037;BME280;73029;43.592;1.458;2024-02-04T11:38:09;101580.75;;;9.22;70.13
83037;BME280;73029;43.592;1.458;2024-02-04T11:40:37;101579.06;;;9.27;70.24
83037;BME280;73029;43.592;1.458;2024-02-04T11:43:07;101572.03;;;9.29;70.05
83037;BME280;73029;43.592;1.458;2024-02-04T11:45:39;101572.09;;;9.35;70.17
83037;BME280;73029;43.592;1.458;2024-02-04T11:48:10;101567.72;;;9.37;70.40
83037;BME280;73029;43.592;1.458;2024-02-04T11:50:36;101558.03;;;9.36;70.24
83037;BME280;73029;43.592;1.458;2024-02-04T11:53:09;101560.72;;;9.42;70.12
83037;BME280;73029;43.592;1.458;2024-02-04T11:55:35;101565.19;;;9.46;70.05
83037;BME280;73029;43.592;1.458;2024-02-04T11:58:02;101549.34;;;9.48;70.05
83037;BME280;73029;43.592;1.458;2024-02-04T12:00:29;101544.97;;;9.48;70.14
83037;BME280;73029;43.592;1.458;2024-02-04T12:05:27;101530.00;;;9.50;69.85
83037;BME280;73029;43.592;1.458;2024-02-04T12:07:53;101533.63;;;9.60;69.76
83037;BME280;73029;43.592;1.458;2024-02-04T12:10:19;101533.66;;;9.63;70.25
83037;BME280;73029;43.592;1.458;2024-02-04T12:12:46;101527.53;;;9.68;70.22
83037;BME280;73029;43.592;1.458;2024-02-04T12:15:11;101535.50;;;9.75;69.46
83037;BME280;73029;43.592;1.458;2024-02-04T12:17:37;101505.56;;;9.73;69.68
83037;BME280;73029;43.592;1.458;2024-02-04T12:20:02;101502.06;;;9.74;69.87
83037;BME280;73029;43.592;1.458;2024-02-04T12:22:30;101510.03;;;9.81;69.95
83037;BME280;73029;43.592;1.458;2024-02-04T12:24:57;101496.81;;;9.80;68.86
83037;BME280;73029;43.592;1.458;2024-02-04T12:27:22;101505.69;;;9.88;68.90
83037;BME280;73029;43.592;1.458;2024-02-04T12:29:53;101489.84;;;9.89;69.45
83037;BME280;73029;43.592;1.458;2024-02-04T12:32:19;101481.97;;;9.97;69.22
83037;BME280;73029;43.592;1.458;2024-02-04T12:34:48;101485.56;;;10.07;69.48
83037;BME280;73029;43.592;1.458;2024-02-04T12:37:14;101447.63;;;9.97;68.65
83037;BME280;73029;43.592;1.458;2024-02-04T12:39:39;101465.34;;;10.16;68.93
83037;BME280;73029;43.592;1.458;2024-02-04T12:42:05;101439.81;;;10.14;69.29
83037;BME280;73029;43.592;1.458;2024-02-04T12:44:31;101479.56;;;10.37;69.09
83037;BME280;73029;43.592;1.458;2024-02-04T12:46:56;101476.09;;;10.41;68.27
83037;BME280;73029;43.592;1.458;2024-02-04T12:49:22;101478.78;;;10.53;68.38
83037;BME280;73029;43.592;1.458;2024-02-04T12:51:48;101471.75;;;10.58;68.42
83037;BME280;73029;43.592;1.458;2024-02-04T12:54:14;101463.81;;;10.61;68.45
83037;BME280;73029;43.592;1.458;2024-02-04T12:59:05;101472.69;;;10.78;68.13
83037;BME280;73029;43.592;1.458;2024-02-04T13:01:31;101464.78;;;10.85;67.80
83037;BME280;73029;43.592;1.458;2024-02-04T13:03:56;101459.50;;;10.91;66.78
83037;BME280;73029;43.592;1.458;2024-02-04T13:06:22;101470.09;;;10.97;67.93
83037;BME280;73029;43.592;1.458;2024-02-04T13:08:47;101463.94;;;11.04;66.62
83037;BME280;73029;43.592;1.458;2024-02-04T13:11:19;101466.59;;;11.05;66.64
83037;BME280;73029;43.592;1.458;2024-02-04T13:13:45;101456.91;;;11.06;66.54